Aérodrome :
LOGIN :

S'inscrire | Disclaimer

   EN    FR    IT 

 










Légende :    VFR   VFR Marginal   IFR   IFR Intensif   IFR Très Intensif
Visi : 
Plafond : 
>= 8 km
>= 3000ft
5 à 8 km
1000 à 3000 ft
1500m à 5 km
500 à 1000 ft
800 à 1500m
200 à 500 ft
< 800m
< 200 ft
Symboles :   Orages  Brouillard  Fortes neiges  Fortes précipitations  Vent > 20 kt
SIGMETs :   Divers  Orages  Givrage  Turbulence  Onde Orograph.  Cendres Volcan.






- Altitude de l'aérodrome : 600 ft
- Code IATA : VIE


LOWW - Vienna Schwechat

DERNIER METAR :
  • 251650Z 15012KT 9000 SCT008 BKN009 02/M00 Q1025 NOSIG

METARs EXPIRÉS :
  • 251620Z 15014KT 8000 FEW008 BKN009 02/M00 Q1024 NOSIG
  • 251550Z 15014KT 8000 FEW008 BKN009 02/M00 Q1024 NOSIG
  • 251520Z 15013KT 8000 OVC009 02/00 Q1024 NOSIG
  • 251450Z 15013KT 9999 FEW008 BKN009 02/M00 Q1024 NOSIG
  • 251420Z 15014KT 9999 FEW007 BKN009 02/M00 Q1024 NOSIG

TAF TAF LOWW
Valide du 25 à 15h jusqu'au 26 à 21h UTC


251415Z 2515/2621 15010KT 6000 OVC008 TX02/2515Z TNM00/2604Z
PROB40
TEMPO 2515/2519 BKN010
BECMG 2522/2524 14004KT OVC004
PROB30
TEMPO 2606/2609 VRB02KT 1200 FZBCFG BKN001
TEMPO 2610/2620 OVC007



MET'MAP, la Météo Aéronautique d'un coup d'oeil ! - Copyright ORBIFLY Décembre 2007 - Disclaimer

ORBIFLY MET'MAP TEAM :

Programmation & Développement : Alexandra Zaïnal
Sur une idée originale de : Baudouin d'Aumeries
Assistance à la programmation : Marc-Olivier Méhu
Soutien technique & logistique : Manuel Goepfert

Contact : metmap@orbifly.com




SOURCES & CREDITS :

   NOAA